Time;durP1;ratioP1;P1;durP2;ratioP2;P2;SDS_P1;SDS_P2;PMS_P1;PMS_P2;Temp;Humidity;BMP_temperature;BMP_pressure;BME280_temperature;BME280_humidity;BME280_pressure;Samples;Min_cycle;Max_cycle;Signal;HPM_P1;HPM_P2
2021/04/28 00:00:15;;;;;;;26.23;15.80;;;;;;;-1.91;66.62;99647.83;1759788;80;21209;-73
2021/04/28 00:02:43;;;;;;;25.10;14.45;;;;;;;-1.95;66.78;99644.84;1777626;79;21065;-73
2021/04/28 00:05:12;;;;;;;27.82;15.65;;;;;;;-1.97;66.84;99643.98;1771372;80;21037;-72
2021/04/28 00:07:39;;;;;;;30.72;16.45;;;;;;;-1.99;66.95;99643.12;1763516;80;21191;-73
2021/04/28 00:10:10;;;;;;;30.05;17.70;;;;;;;-2.04;66.96;99643.98;1778716;80;21194;-73
2021/04/28 00:12:37;;;;;;;33.75;17.23;;;;;;;-2.05;67.06;99638.84;1776238;80;21266;-72
2021/04/28 00:15:11;;;;;;;33.63;19.32;;;;;;;-2.07;67.27;99636.30;1757710;80;21649;-72
2021/04/28 00:17:38;;;;;;;35.58;20.20;;;;;;;-2.06;67.34;99644.82;1744648;80;22442;-73
2021/04/28 00:20:10;;;;;;;38.80;20.17;;;;;;;-2.06;67.36;99639.70;1761143;80;21174;-73
2021/04/28 00:22:39;;;;;;;37.53;18.65;;;;;;;-2.06;67.47;99643.11;1753631;80;21122;-73
2021/04/28 00:25:09;;;;;;;40.67;20.15;;;;;;;-2.07;67.45;99640.13;1751368;80;21390;-74
2021/04/28 00:27:36;;;;;;;37.73;20.85;;;;;;;-2.10;67.43;99628.62;1755817;80;21119;-73
2021/04/28 00:30:07;;;;;;;35.95;19.85;;;;;;;-2.11;67.41;99638.41;1764573;80;21166;-73
2021/04/28 00:32:35;;;;;;;42.55;20.45;;;;;;;-2.13;67.41;99627.73;1761265;80;21646;-73
2021/04/28 00:35:05;;;;;;;35.17;18.52;;;;;;;-2.15;67.51;99630.30;1752454;80;21194;-73
2021/04/28 00:37:32;;;;;;;37.98;19.70;;;;;;;-2.19;67.61;99623.45;1757161;80;21409;-73
2021/04/28 00:39:59;;;;;;;36.23;20.50;;;;;;;-2.22;67.63;99627.28;1754110;80;21597;-73
2021/04/28 00:42:27;;;;;;;32.45;18.62;;;;;;;-2.27;67.77;99623.86;1752028;80;21087;-73
2021/04/28 00:44:54;;;;;;;;;;;;;;;-2.27;67.99;99622.58;1772607;80;21780;-73
2021/04/28 00:47:21;;;;;;;;;;;;;;;-2.23;68.29;99619.20;1754086;80;20216;-73
2021/04/28 00:49:47;;;;;;;33.13;19.10;;;;;;;-2.21;68.30;99622.63;1759901;80;22429;-73
2021/04/28 00:52:15;;;;;;;36.28;19.45;;;;;;;-2.18;68.26;99627.74;1747296;80;21238;-73
2021/04/28 00:54:43;;;;;;;36.63;19.45;;;;;;;-2.16;68.33;99628.58;1761508;80;21115;-73
2021/04/28 00:57:10;;;;;;;28.42;18.65;;;;;;;-2.10;68.41;99626.45;1749446;80;21193;-73
2021/04/28 00:59:38;;;;;;;23.60;14.35;;;;;;;-2.07;68.34;99628.63;1747551;80;21201;-73
2021/04/28 01:02:05;;;;;;;28.05;17.17;;;;;;;-2.04;68.70;99622.66;1750838;80;21192;-73
2021/04/28 01:04:32;;;;;;;;;;;;;;;-1.98;68.76;99622.66;1765332;80;21165;-73
2021/04/28 01:07:02;;;;;;;25.72;14.60;;;;;;;-1.91;68.93;99620.95;1744229;80;20141;-73
2021/04/28 01:09:29;;;;;;;19.50;12.28;;;;;;;-1.86;68.82;99629.50;1756550;80;21146;-73
2021/04/28 01:11:56;;;;;;;24.60;14.63;;;;;;;-1.82;68.90;99626.08;1765659;80;21150;-73
2021/04/28 01:14:25;;;;;;;22.67;12.73;;;;;;;-1.78;68.81;99620.56;1744756;80;21200;-73
2021/04/28 01:16:52;;;;;;;20.88;13.08;;;;;;;-1.76;68.75;99615.88;1754806;80;21183;-74
2021/04/28 01:19:22;;;;;;;23.00;14.43;;;;;;;-1.74;68.82;99616.70;1763543;80;21247;-74
2021/04/28 01:21:51;;;;;;;25.37;13.35;;;;;;;-1.73;68.71;99610.75;1766666;79;21160;-73
2021/04/28 01:24:18;;;;;;;22.80;13.32;;;;;;;-1.74;68.70;99610.30;1768772;79;21183;-72
2021/04/28 01:26:49;;;;;;;18.87;12.50;;;;;;;-1.74;68.83;99611.59;1736008;80;21496;-72
2021/04/28 01:29:19;;;;;;;21.80;13.05;;;;;;;-1.76;68.74;99613.31;1740414;80;21668;-72
2021/04/28 01:31:48;;;;;;;16.82;11.53;;;;;;;-1.76;68.95;99605.64;1744629;81;21144;-73
2021/04/28 01:34:26;;;;;;;19.98;11.05;;;;;;;-1.76;69.02;99605.64;1748924;81;21677;-72
2021/04/28 01:36:54;;;;;;;21.48;10.32;;;;;;;-1.73;69.20;99611.19;1751538;81;21561;-72
2021/04/28 01:39:22;;;;;;;20.02;10.88;;;;;;;-1.71;69.30;99606.50;1803593;77;21127;-73
2021/04/28 01:41:51;;;;;;;20.92;11.83;;;;;;;-1.67;69.34;99600.52;1798072;78;21165;-73
2021/04/28 01:44:21;;;;;;;19.73;11.03;;;;;;;-1.66;69.24;99604.77;1798310;77;21037;-73
2021/04/28 01:46:54;;;;;;;18.75;10.90;;;;;;;-1.66;69.29;99599.64;1794837;77;21149;-74
2021/04/28 01:49:21;;;;;;;18.98;10.25;;;;;;;-1.66;69.26;99599.64;1797533;77;21140;-73
2021/04/28 01:51:48;;;;;;;;;;;;;;;-1.65;69.32;99603.94;1802429;78;21305;-73
2021/04/28 01:54:18;;;;;;;14.78;8.83;;;;;;;-1.64;69.44;99601.79;1798285;78;21190;-73
2021/04/28 01:56:48;;;;;;;13.43;9.05;;;;;;;-1.63;69.41;99602.20;1805517;78;21034;-73
2021/04/28 01:59:17;;;;;;;11.10;7.75;;;;;;;-1.60;69.63;99606.47;1798626;78;21024;-73
2021/04/28 02:01:52;;;;;;;12.35;7.87;;;;;;;-1.56;69.60;99595.39;1775884;79;21140;-72
2021/04/28 02:04:20;;;;;;;12.28;7.45;;;;;;;-1.51;69.76;99597.94;1739870;80;21217;-72
2021/04/28 02:06:49;;;;;;;16.32;8.98;;;;;;;-1.47;69.75;99600.94;1754140;79;21009;-72
2021/04/28 02:09:17;;;;;;;10.40;7.87;;;;;;;-1.41;69.84;99597.09;1743720;79;21032;-73
2021/04/28 02:11:43;;;;;;;13.78;7.78;;;;;;;-1.37;69.83;99599.66;1806515;78;21037;-72
2021/04/28 02:14:20;;;;;;;15.53;9.10;;;;;;;-1.33;69.81;99587.69;1802534;77;21173;-73
2021/04/28 02:16:47;;;;;;;14.55;8.95;;;;;;;-1.31;69.82;99585.98;1808822;77;21197;-73
2021/04/28 02:19:16;;;;;;;12.78;8.73;;;;;;;-1.28;69.81;99583.42;1805015;78;21066;-72
2021/04/28 02:21:47;;;;;;;13.13;7.60;;;;;;;-1.26;69.88;99575.31;1778643;80;21067;-73
2021/04/28 02:24:15;;;;;;;14.10;7.40;;;;;;;-1.22;69.79;99577.00;1746919;80;21248;-73
2021/04/28 02:26:44;;;;;;;13.32;7.45;;;;;;;-1.16;69.85;99573.13;1760402;80;21158;-73
2021/04/28 02:29:12;;;;;;;8.93;6.40;;;;;;;-1.10;69.96;99573.98;1759200;80;21266;-72
2021/04/28 02:31:39;;;;;;;9.98;7.10;;;;;;;-1.08;70.01;99574.84;1759325;80;21489;-73
2021/04/28 02:34:08;;;;;;;11.78;6.83;;;;;;;-1.09;70.01;99567.98;1754136;80;25013;-73
2021/04/28 02:36:40;;;;;;;14.10;7.10;;;;;;;-1.09;70.09;99573.11;1754525;79;21078;-73
2021/04/28 02:39:36;;;;;;;15.80;8.03;;;;;;;-1.10;70.07;99567.58;1758521;79;21292;-72
2021/04/28 02:42:10;;;;;;;16.30;9.03;;;;;;;-1.12;70.16;99568.88;1707414;83;21548;-73
2021/04/28 02:45:21;;;;;;;13.60;8.40;;;;;;;-1.10;70.24;99562.45;1759159;79;22864;-72
2021/04/28 02:47:51;;;;;;;14.73;9.03;;;;;;;-1.15;70.20;99568.45;1737667;81;21062;-73
2021/04/28 02:50:24;;;;;;;12.20;8.13;;;;;;;-1.16;70.19;99562.04;1735134;81;22024;-73
2021/04/28 02:52:54;;;;;;;12.73;8.58;;;;;;;-1.16;70.35;99565.87;1742511;80;21269;-73
2021/04/28 02:55:21;;;;;;;14.45;8.30;;;;;;;-1.16;70.32;99557.77;1740334;81;21080;-73
2021/04/28 02:57:48;;;;;;;;;;;;;;;-1.17;70.28;99557.35;1745676;81;21229;-73
2021/04/28 03:00:20;;;;;;;12.13;6.92;;;;;;;-1.20;70.50;99553.52;1738709;81;20624;-74
2021/04/28 03:02:49;;;;;;;12.70;8.63;;;;;;;-1.23;70.46;99553.53;1738548;80;21208;-74
2021/04/28 03:05:20;;;;;;;12.82;8.68;;;;;;;-1.25;70.38;99551.39;1737081;81;21060;-74
2021/04/28 03:07:48;;;;;;;13.10;8.10;;;;;;;-1.27;70.36;99549.25;1734391;81;21147;-73
2021/04/28 03:10:17;;;;;;;13.13;7.28;;;;;;;-1.28;70.53;99552.67;1733894;81;21070;-73
2021/04/28 03:12:45;;;;;;;10.75;7.62;;;;;;;-1.28;70.58;99553.11;1738275;80;21238;-73
2021/04/28 03:15:16;;;;;;;8.70;5.90;;;;;;;-1.25;70.66;99552.67;1735611;81;21686;-72
2021/04/28 03:17:45;;;;;;;10.53;7.90;;;;;;;-1.24;70.60;99548.39;1733212;80;21619;-72
2021/04/28 03:20:14;;;;;;;11.80;7.85;;;;;;;-1.21;70.68;99551.79;1733560;81;21542;-72
2021/04/28 03:22:41;;;;;;;17.55;9.10;;;;;;;-1.20;70.63;99553.52;1715161;81;21600;-73
2021/04/28 03:25:11;;;;;;;20.23;8.80;;;;;;;-1.16;70.75;99551.36;1736423;81;21167;-72
2021/04/28 03:27:39;;;;;;;16.48;9.30;;;;;;;-1.10;70.81;99550.92;1735099;81;21593;-73
2021/04/28 03:30:07;;;;;;;;;;;;;;;-1.07;70.82;99549.20;1739868;81;21012;-72
2021/04/28 03:32:35;;;;;;;10.80;7.20;;;;;;;-1.02;70.85;99549.19;1737562;81;20353;-72
2021/04/28 03:35:03;;;;;;;15.10;8.18;;;;;;;-0.96;70.79;99550.45;1736908;81;21253;-73
2021/04/28 03:37:29;;;;;;;;;;;;;;;-0.76;70.97;99549.94;1746497;81;21266;-73
2021/04/28 03:39:56;;;;;;;13.28;7.78;;;;;;;-0.16;71.19;99548.78;1737464;81;21465;-72
2021/04/28 03:42:23;;;;;;;14.25;8.30;;;;;;;0.56;71.13;99547.78;1732986;81;21131;-73
2021/04/28 03:44:56;;;;;;;12.25;7.97;;;;;;;1.27;70.61;99546.56;1713507;81;21199;-73
2021/04/28 03:47:23;;;;;;;11.53;6.78;;;;;;;1.87;70.00;99548.33;1706022;82;21183;-74
2021/04/28 03:49:50;;;;;;;9.78;6.30;;;;;;;2.37;69.53;99536.37;1706107;82;21270;-74
2021/04/28 03:54:11;;;;;;;11.78;6.72;;;;;;;3.14;69.18;99533.25;1837518;76;22542;-73
2021/04/28 03:56:40;;;;;;;8.40;5.45;;;;;;;3.63;69.13;99528.77;1803521;77;21606;-73
2021/04/28 03:59:08;;;;;;;9.60;5.60;;;;;;;4.18;68.68;99540.42;1809403;79;21395;-73
2021/04/28 04:01:35;;;;;;;12.50;6.50;;;;;;;4.74;68.54;99539.05;1803218;77;21406;-73
2021/04/28 04:04:03;;;;;;;8.40;5.85;;;;;;;5.26;68.13;99537.59;1806047;79;21578;-73
2021/04/28 04:06:29;;;;;;;8.35;5.05;;;;;;;5.79;67.76;99535.16;1809847;77;21006;-73
2021/04/28 04:08:56;;;;;;;8.98;4.92;;;;;;;6.24;67.29;99538.53;1808429;77;21578;-74
2021/04/28 04:11:24;;;;;;;12.25;4.92;;;;;;;6.69;66.98;99536.59;1806681;79;21199;-73
2021/04/28 04:13:51;;;;;;;14.30;5.28;;;;;;;7.02;66.82;99533.73;1804058;79;21123;-74
2021/04/28 04:16:18;;;;;;;8.98;5.22;;;;;;;7.42;66.56;99538.30;1804529;79;21489;-74
2021/04/28 04:18:45;;;;;;;;;;;;;;;7.78;66.02;99546.45;1749504;80;21050;-74
2021/04/28 04:21:12;;;;;;;19.75;15.60;;;;;;;7.99;65.59;99549.14;1738481;81;20225;-74
2021/04/28 04:23:39;;;;;;;18.15;15.28;;;;;;;8.28;65.67;99539.70;1747765;81;21251;-74
2021/04/28 04:26:06;;;;;;;12.35;11.03;;;;;;;8.69;65.75;99542.85;1746186;81;20977;-74
2021/04/28 04:28:33;;;;;;;10.85;8.10;;;;;;;9.12;65.42;99544.43;1737508;82;20998;-74
2021/04/28 04:31:00;;;;;;;10.00;6.45;;;;;;;9.46;65.15;99546.83;1743349;80;21226;-74
